PWSweather.com
Personal Weather Stations
Station Observations
GEELONGWX1
Bell Post Hill, GeelongAU

Bell Post HillGeelongAU

Lat: -38.101, Lon: 144.326

Elevation: 204

Station Type: Davis Vantage Pro2

http://www.geelongweather.com

Latest ConditionsUpdated 3:10:04 PM GMT+10:10 Friday, Jun 23, 2017
Currently Today's Max Today's Min Today's Average
Temperature 58.5°F14.7°C 61.1°F16.2°C 44.1°F6.7°C 51.8°F11.0°C
Dew Point 46.4°F8.0°C 47.3°F8.5°C 40.0°F4.4°C 44.4°F6.9°C
Winds 8.1 mph W13.0 kmh W 12.7 mph WSW20.4 kmh WSW - 4.9 mph 7.9 kmh
Wind Gusts 11.5 mph18.5 kmh 20.7 mph33.3 kmh - -
Humidity 64% 90% 58% 77%
Pressure 29.98 in1015.2 mb 30.22 in1023.4 mb 29.98 in1015.2 mb -
Hour Temp Dew Point Humidity Winds Wind Gusts Pressure Precip Precip Rate Daily Precip Total
03:10 PM 58.5°F14.7°C 46.4°F8.0°C 64% 8.1 mph W13.0 kmh W 11.5 mph18.5 kmh 29.98 in1015.2 mb - 0.00 in0.0 mm 0.00 in0.0 mm
03:00 PM 58.4°F14.7°C 46.3°F7.9°C 64% 6.9 mph W11.1 kmh W 11.5 mph18.5 kmh 29.98 in1015.2 mb - 0.00 in0.0 mm 0.00 in0.0 mm
02:50 PM 58.6°F14.8°C 46.0°F7.8°C 63% 4.6 mph W7.4 kmh W 13.8 mph22.2 kmh 29.98 in1015.2 mb - 0.00 in0.0 mm 0.00 in0.0 mm
02:40 PM 59.1°F15.1°C 45.7°F7.6°C 61% 8.1 mph W13.0 kmh W 11.5 mph18.5 kmh 29.98 in1015.2 mb - 0.00 in0.0 mm 0.00 in0.0 mm
02:30 PM 59.7°F15.4°C 45.8°F7.7°C 60% 8.1 mph W13.0 kmh W 17.3 mph27.8 kmh 29.98 in1015.2 mb - 0.00 in0.0 mm 0.00 in0.0 mm
02:20 PM 60.5°F15.8°C 46.1°F7.8°C 59% 8.1 mph W13.0 kmh W 12.7 mph20.4 kmh 29.98 in1015.2 mb - 0.00 in0.0 mm 0.00 in0.0 mm
02:10 PM 60.7°F15.9°C 45.8°F7.7°C 58% 9.2 mph SW14.8 kmh SW 17.3 mph27.8 kmh 29.98 in1015.2 mb - 0.00 in0.0 mm 0.00 in0.0 mm
02:00 PM 61.0°F16.1°C 46.1°F7.8°C 58% 6.9 mph WSW11.1 kmh WSW 13.8 mph22.2 kmh 29.98 in1015.2 mb - 0.00 in0.0 mm 0.00 in0.0 mm
01:50 PM 61.1°F16.2°C 46.2°F7.9°C 58% 11.5 mph WSW18.5 kmh WSW 12.7 mph20.4 kmh 29.98 in1015.2 mb - 0.00 in0.0 mm 0.00 in0.0 mm
01:40 PM 60.5°F15.8°C 46.5°F8.1°C 60% 9.2 mph WSW14.8 kmh WSW 12.7 mph20.4 kmh 29.99 in1015.6 mb - 0.00 in0.0 mm 0.00 in0.0 mm
01:30 PM 59.7°F15.4°C 46.2°F7.9°C 61% 5.8 mph WNW9.3 kmh WNW 12.7 mph20.4 kmh 29.99 in1015.6 mb - 0.00 in0.0 mm 0.00 in0.0 mm
01:20 PM 58.9°F14.9°C 45.9°F7.7°C 62% 5.8 mph WSW9.3 kmh WSW 11.5 mph18.5 kmh 30.00 in1015.9 mb - 0.00 in0.0 mm 0.00 in0.0 mm
01:10 PM 59.1°F15.1°C 45.7°F7.6°C 61% 10.4 mph WSW16.7 kmh WSW 15.0 mph24.1 kmh 30.00 in1015.9 mb - 0.00 in0.0 mm 0.00 in0.0 mm
01:00 PM 59.2°F15.1°C 46.2°F7.9°C 62% 5.8 mph WSW9.3 kmh WSW 11.5 mph18.5 kmh 30.01 in1016.3 mb - 0.00 in0.0 mm 0.00 in0.0 mm
12:50 PM 59.2°F15.1°C 45.8°F7.7°C 61% 4.6 mph WSW7.4 kmh WSW 8.1 mph13.0 kmh 30.01 in1016.3 mb - 0.00 in0.0 mm 0.00 in0.0 mm
12:40 PM 59.8°F15.4°C 45.4°F7.4°C 59% 9.2 mph WSW14.8 kmh WSW 13.8 mph22.2 kmh 30.01 in1016.3 mb - 0.00 in0.0 mm 0.00 in0.0 mm
12:30 PM 60.2°F15.7°C 46.3°F7.9°C 60% 12.7 mph WSW20.4 kmh WSW 20.7 mph33.3 kmh 30.02 in1016.6 mb - 0.00 in0.0 mm 0.00 in0.0 mm
12:20 PM 59.7°F15.4°C 46.7°F8.2°C 62% 5.8 mph WSW9.3 kmh WSW 9.2 mph14.8 kmh 30.02 in1016.6 mb - 0.00 in0.0 mm 0.00 in0.0 mm
12:10 PM 59.5°F15.3°C 46.1°F7.8°C 61% 10.4 mph WSW16.7 kmh WSW 16.1 mph25.9 kmh 30.03 in1016.9 mb - 0.00 in0.0 mm 0.00 in0.0 mm
12:00 PM 59.1°F15.1°C 46.5°F8.1°C 63% 9.2 mph W14.8 kmh W 19.6 mph31.5 kmh 30.04 in1017.3 mb - 0.00 in0.0 mm 0.00 in0.0 mm
11:50 AM 58.1°F14.5°C 46.8°F8.2°C 66% 5.8 mph W9.3 kmh W 11.5 mph18.5 kmh 30.04 in1017.3 mb - 0.00 in0.0 mm 0.00 in0.0 mm
11:40 AM 57.7°F14.3°C 46.8°F8.2°C 67% 6.9 mph WSW11.1 kmh WSW 12.7 mph20.4 kmh 30.05 in1017.6 mb - 0.00 in0.0 mm 0.00 in0.0 mm
11:30 AM 56.8°F13.8°C 47.1°F8.4°C 70% 4.6 mph WSW7.4 kmh WSW 8.1 mph13.0 kmh 30.06 in1017.9 mb - 0.00 in0.0 mm 0.00 in0.0 mm
11:20 AM 56.2°F13.4°C 46.5°F8.1°C 70% 6.9 mph W11.1 kmh W 12.7 mph20.4 kmh 30.07 in1018.3 mb - 0.00 in0.0 mm 0.00 in0.0 mm
11:10 AM 56.0°F13.3°C 46.4°F8.0°C 70% 5.8 mph W9.3 kmh W 11.5 mph18.5 kmh 30.08 in1018.6 mb - 0.00 in0.0 mm 0.00 in0.0 mm
11:00 AM 55.8°F13.2°C 46.2°F7.9°C 70% 5.8 mph WSW9.3 kmh WSW 12.7 mph20.4 kmh 30.08 in1018.6 mb - 0.00 in0.0 mm 0.00 in0.0 mm
10:50 AM 56.0°F13.3°C 46.3°F7.9°C 70% 8.1 mph W13.0 kmh W 11.5 mph18.5 kmh 30.09 in1019.0 mb - 0.00 in0.0 mm 0.00 in0.0 mm
10:40 AM 56.1°F13.4°C 46.4°F8.0°C 70% 6.9 mph W11.1 kmh W 11.5 mph18.5 kmh 30.10 in1019.3 mb - 0.00 in0.0 mm 0.00 in0.0 mm
10:30 AM 56.4°F13.6°C 46.7°F8.2°C 70% 5.8 mph WSW9.3 kmh WSW 10.4 mph16.7 kmh 30.10 in1019.3 mb - 0.00 in0.0 mm 0.00 in0.0 mm
10:20 AM 56.4°F13.6°C 47.1°F8.4°C 71% 8.1 mph WSW13.0 kmh WSW 11.5 mph18.5 kmh 30.11 in1019.6 mb - 0.00 in0.0 mm 0.00 in0.0 mm
10:10 AM 55.8°F13.2°C 47.3°F8.5°C 73% 5.8 mph W9.3 kmh W 10.4 mph16.7 kmh 30.11 in1019.6 mb - 0.00 in0.0 mm 0.00 in0.0 mm
10:00 AM 55.1°F12.8°C 47.0°F8.3°C 74% 9.2 mph W14.8 kmh W 13.8 mph22.2 kmh 30.11 in1019.6 mb - 0.00 in0.0 mm 0.00 in0.0 mm
09:50 AM 54.1°F12.3°C 47.0°F8.3°C 77% 5.8 mph WSW9.3 kmh WSW 9.2 mph14.8 kmh 30.11 in1019.6 mb - 0.00 in0.0 mm 0.00 in0.0 mm
09:40 AM 53.1°F11.7°C 46.7°F8.2°C 79% 4.6 mph WSW7.4 kmh WSW 5.8 mph9.3 kmh 30.12 in1020.0 mb - 0.00 in0.0 mm 0.00 in0.0 mm
09:30 AM 52.0°F11.1°C 46.7°F8.2°C 82% 5.8 mph WSW9.3 kmh WSW 11.5 mph18.5 kmh 30.12 in1020.0 mb - 0.00 in0.0 mm 0.00 in0.0 mm
09:20 AM 50.8°F10.4°C 46.8°F8.2°C 86% 4.6 mph W7.4 kmh W 5.8 mph9.3 kmh 30.12 in1020.0 mb - 0.00 in0.0 mm 0.00 in0.0 mm
09:10 AM 49.5°F9.7°C 46.0°F7.8°C 88% 4.6 mph WNW7.4 kmh WNW 5.8 mph9.3 kmh 30.12 in1020.0 mb - 0.00 in0.0 mm 0.00 in0.0 mm
09:00 AM 48.0°F8.9°C 44.9°F7.2°C 89% 2.3 mph WSW3.7 kmh WSW 5.8 mph9.3 kmh 30.12 in1020.0 mb - 0.00 in0.0 mm 0.00 in0.0 mm
08:50 AM 46.8°F8.2°C 44.0°F6.7°C 90% 3.5 mph W5.6 kmh W 3.5 mph5.6 kmh 30.12 in1020.0 mb - 0.00 in0.0 mm 0.00 in0.0 mm
08:40 AM 45.6°F7.6°C 42.5°F5.8°C 89% 2.3 mph WSW3.7 kmh WSW 3.5 mph5.6 kmh 30.13 in1020.3 mb - 0.00 in0.0 mm 0.00 in0.0 mm
08:30 AM 44.8°F7.1°C 41.5°F5.3°C 88% 1.2 mph W1.9 kmh W 3.5 mph5.6 kmh 30.12 in1020.0 mb - 0.00 in0.0 mm 0.00 in0.0 mm
08:20 AM 44.6°F7.0°C 41.3°F5.2°C 88% 1.2 mph WSW1.9 kmh WSW 2.3 mph3.7 kmh 30.13 in1020.3 mb - 0.00 in0.0 mm 0.00 in0.0 mm
08:10 AM 44.6°F7.0°C 41.3°F5.2°C 88% 1.2 mph SW1.9 kmh SW 2.3 mph3.7 kmh 30.13 in1020.3 mb - 0.00 in0.0 mm 0.00 in0.0 mm
08:00 AM 44.8°F7.1°C 41.5°F5.3°C 88% Calm Calm 2.3 mph3.7 kmh 30.13 in1020.3 mb - 0.00 in0.0 mm 0.00 in0.0 mm
07:50 AM 44.9°F7.2°C 41.6°F5.3°C 88% Calm Calm 1.2 mph1.9 kmh 30.14 in1020.7 mb - 0.00 in0.0 mm 0.00 in0.0 mm
07:40 AM 45.0°F7.2°C 41.7°F5.4°C 88% 2.3 mph W3.7 kmh W 3.5 mph5.6 kmh 30.14 in1020.7 mb - 0.00 in0.0 mm 0.00 in0.0 mm
07:30 AM 45.0°F7.2°C 41.7°F5.4°C 88% 2.3 mph WSW3.7 kmh WSW 3.5 mph5.6 kmh 30.14 in1020.7 mb - 0.00 in0.0 mm 0.00 in0.0 mm
07:20 AM 44.9°F7.2°C 41.6°F5.3°C 88% 2.3 mph W3.7 kmh W 3.5 mph5.6 kmh 30.14 in1020.7 mb - 0.00 in0.0 mm 0.00 in0.0 mm
07:10 AM 44.4°F6.9°C 41.1°F5.1°C 88% 2.3 mph WSW3.7 kmh WSW 3.5 mph5.6 kmh 30.14 in1020.7 mb - 0.00 in0.0 mm 0.00 in0.0 mm
07:00 AM 44.1°F6.7°C 40.2°F4.6°C 86% 3.5 mph WSW5.6 kmh WSW 4.6 mph7.4 kmh 30.14 in1020.7 mb - 0.00 in0.0 mm 0.00 in0.0 mm
06:50 AM 44.2°F6.8°C 40.3°F4.6°C 86% 2.3 mph WSW3.7 kmh WSW 3.5 mph5.6 kmh 30.14 in1020.7 mb - 0.00 in0.0 mm 0.00 in0.0 mm
06:40 AM 44.4°F6.9°C 40.2°F4.6°C 85% 2.3 mph WSW3.7 kmh WSW 3.5 mph5.6 kmh 30.14 in1020.7 mb - 0.00 in0.0 mm 0.00 in0.0 mm
06:30 AM 44.6°F7.0°C 40.4°F4.7°C 85% 2.3 mph WSW3.7 kmh WSW 3.5 mph5.6 kmh 30.15 in1021.0 mb - 0.00 in0.0 mm 0.00 in0.0 mm
06:20 AM 44.7°F7.1°C 40.5°F4.7°C 85% 1.2 mph WSW1.9 kmh WSW 3.5 mph5.6 kmh 30.14 in1020.7 mb - 0.00 in0.0 mm 0.00 in0.0 mm
06:10 AM 44.7°F7.1°C 40.2°F4.6°C 84% 2.3 mph WSW3.7 kmh WSW 3.5 mph5.6 kmh 30.15 in1021.0 mb - 0.00 in0.0 mm 0.00 in0.0 mm
06:00 AM 44.9°F7.2°C 40.0°F4.4°C 83% 2.3 mph WSW3.7 kmh WSW 3.5 mph5.6 kmh 30.15 in1021.0 mb - 0.00 in0.0 mm 0.00 in0.0 mm
05:50 AM 45.2°F7.3°C 40.0°F4.4°C 82% 1.2 mph SW1.9 kmh SW 2.3 mph3.7 kmh 30.15 in1021.0 mb - 0.00 in0.0 mm 0.00 in0.0 mm
05:40 AM 45.6°F7.6°C 40.4°F4.7°C 82% 1.2 mph WSW1.9 kmh WSW 2.3 mph3.7 kmh 30.15 in1021.0 mb - 0.00 in0.0 mm 0.00 in0.0 mm
05:30 AM 46.1°F7.8°C 40.6°F4.8°C 81% 1.2 mph SW1.9 kmh SW 2.3 mph3.7 kmh 30.14 in1020.7 mb - 0.00 in0.0 mm 0.00 in0.0 mm
05:20 AM 46.5°F8.1°C 41.0°F5.0°C 81% 1.2 mph SW1.9 kmh SW 2.3 mph3.7 kmh 30.14 in1020.7 mb - 0.00 in0.0 mm 0.00 in0.0 mm
05:10 AM 47.1°F8.4°C 41.5°F5.3°C 81% 1.2 mph SW1.9 kmh SW 2.3 mph3.7 kmh 30.14 in1020.7 mb - 0.00 in0.0 mm 0.00 in0.0 mm
05:00 AM 47.6°F8.7°C 42.1°F5.6°C 81% 2.3 mph W3.7 kmh W 2.3 mph3.7 kmh 30.15 in1021.0 mb - 0.00 in0.0 mm 0.00 in0.0 mm
04:50 AM 48.1°F8.9°C 42.9°F6.1°C 82% 1.2 mph SW1.9 kmh SW 3.5 mph5.6 kmh 30.15 in1021.0 mb - 0.00 in0.0 mm 0.00 in0.0 mm
04:40 AM 48.5°F9.2°C 43.3°F6.3°C 82% 1.2 mph WSW1.9 kmh WSW 3.5 mph5.6 kmh 30.15 in1021.0 mb - 0.00 in0.0 mm 0.00 in0.0 mm
04:30 AM 48.9°F9.4°C 43.6°F6.4°C 82% 2.3 mph WSW3.7 kmh WSW 3.5 mph5.6 kmh 30.16 in1021.3 mb - 0.00 in0.0 mm 0.00 in0.0 mm
04:20 AM 49.2°F9.6°C 43.9°F6.6°C 82% 2.3 mph WSW3.7 kmh WSW 3.5 mph5.6 kmh 30.16 in1021.3 mb - 0.00 in0.0 mm 0.00 in0.0 mm
04:10 AM 49.4°F9.7°C 44.1°F6.7°C 82% 3.5 mph SW5.6 kmh SW 4.6 mph7.4 kmh 30.16 in1021.3 mb - 0.00 in0.0 mm 0.00 in0.0 mm
04:00 AM 49.6°F9.8°C 44.3°F6.8°C 82% 3.5 mph SW5.6 kmh SW 3.5 mph5.6 kmh 30.16 in1021.3 mb - 0.00 in0.0 mm 0.00 in0.0 mm
03:50 AM 49.9°F9.9°C 44.6°F7.0°C 82% 4.6 mph SW7.4 kmh SW 4.6 mph7.4 kmh 30.16 in1021.3 mb - 0.00 in0.0 mm 0.00 in0.0 mm
03:40 AM 50.1°F10.1°C 44.9°F7.2°C 82% 5.8 mph WSW9.3 kmh WSW 9.2 mph14.8 kmh 30.17 in1021.7 mb - 0.00 in0.0 mm 0.00 in0.0 mm
03:30 AM 50.3°F10.2°C 44.7°F7.1°C 81% 4.6 mph SW7.4 kmh SW 9.2 mph14.8 kmh 30.17 in1021.7 mb - 0.00 in0.0 mm 0.00 in0.0 mm
03:20 AM 50.5°F10.3°C 44.9°F7.2°C 81% 8.1 mph W13.0 kmh W 11.5 mph18.5 kmh 30.17 in1021.7 mb - 0.00 in0.0 mm 0.00 in0.0 mm
03:10 AM 50.7°F10.4°C 45.1°F7.3°C 81% 8.1 mph SW13.0 kmh SW 15.0 mph24.1 kmh 30.18 in1022.0 mb - 0.00 in0.0 mm 0.00 in0.0 mm
03:00 AM 50.8°F10.4°C 45.2°F7.3°C 81% 8.1 mph SW13.0 kmh SW 11.5 mph18.5 kmh 30.18 in1022.0 mb - 0.00 in0.0 mm 0.00 in0.0 mm
02:50 AM 50.8°F10.4°C 44.9°F7.2°C 80% 8.1 mph W13.0 kmh W 11.5 mph18.5 kmh 30.17 in1021.7 mb - 0.00 in0.0 mm 0.00 in0.0 mm
02:40 AM 50.9°F10.5°C 44.9°F7.2°C 80% 9.2 mph W14.8 kmh W 10.4 mph16.7 kmh 30.18 in1022.0 mb - 0.00 in0.0 mm 0.00 in0.0 mm
02:30 AM 51.0°F10.6°C 45.0°F7.2°C 80% 9.2 mph W14.8 kmh W 11.5 mph18.5 kmh 30.18 in1022.0 mb - 0.00 in0.0 mm 0.00 in0.0 mm
02:20 AM 51.1°F10.6°C 44.8°F7.1°C 79% 9.2 mph SW14.8 kmh SW 11.5 mph18.5 kmh 30.18 in1022.0 mb - 0.00 in0.0 mm 0.00 in0.0 mm
02:10 AM 51.2°F10.7°C 44.9°F7.2°C 79% 6.9 mph SW11.1 kmh SW 10.4 mph16.7 kmh 30.18 in1022.0 mb - 0.00 in0.0 mm 0.00 in0.0 mm
02:00 AM 51.4°F10.8°C 45.1°F7.3°C 79% 6.9 mph WSW11.1 kmh WSW 9.2 mph14.8 kmh 30.18 in1022.0 mb - 0.00 in0.0 mm 0.00 in0.0 mm
01:50 AM 51.5°F10.8°C 45.2°F7.3°C 79% 6.9 mph WSW11.1 kmh WSW 12.7 mph20.4 kmh 30.19 in1022.4 mb - 0.00 in0.0 mm 0.00 in0.0 mm
01:40 AM 51.5°F10.8°C 45.2°F7.3°C 79% 8.1 mph WSW13.0 kmh WSW 13.8 mph22.2 kmh 30.18 in1022.0 mb - 0.00 in0.0 mm 0.00 in0.0 mm
01:30 AM 51.5°F10.8°C 45.2°F7.3°C 79% 4.6 mph WSW7.4 kmh WSW 10.4 mph16.7 kmh 30.18 in1022.0 mb - 0.00 in0.0 mm 0.00 in0.0 mm
01:20 AM 51.4°F10.8°C 45.4°F7.4°C 80% 4.6 mph WSW7.4 kmh WSW 11.5 mph18.5 kmh 30.19 in1022.4 mb - 0.00 in0.0 mm 0.00 in0.0 mm
01:10 AM 51.2°F10.7°C 45.5°F7.5°C 81% 3.5 mph WSW5.6 kmh WSW 5.8 mph9.3 kmh 30.19 in1022.4 mb - 0.00 in0.0 mm 0.00 in0.0 mm
01:00 AM 50.8°F10.4°C 45.5°F7.5°C 82% 2.3 mph W3.7 kmh W 11.5 mph18.5 kmh 30.20 in1022.7 mb - 0.00 in0.0 mm 0.00 in0.0 mm
12:50 AM 50.3°F10.2°C 45.3°F7.4°C 83% Calm Calm 8.1 mph13.0 kmh 30.20 in1022.7 mb - 0.00 in0.0 mm 0.00 in0.0 mm
12:40 AM 49.8°F9.9°C 44.8°F7.1°C 83% 4.6 mph W7.4 kmh W 8.1 mph13.0 kmh 30.21 in1023.0 mb - 0.00 in0.0 mm 0.00 in0.0 mm
12:30 AM 49.4°F9.7°C 44.5°F6.9°C 83% Calm Calm 5.8 mph9.3 kmh 30.21 in1023.0 mb - 0.00 in0.0 mm 0.00 in0.0 mm
12:20 AM 49.3°F9.6°C 44.0°F6.7°C 82% 1.2 mph W1.9 kmh W 3.5 mph5.6 kmh 30.21 in1023.0 mb - 0.00 in0.0 mm 0.00 in0.0 mm
12:10 AM 49.4°F9.7°C 44.1°F6.7°C 82% Calm Calm -- 30.22 in1023.4 mb - 0.00 in0.0 mm 0.00 in0.0 mm
12:00 AM 49.5°F9.7°C 44.2°F6.8°C 82% Calm Calm -- 30.22 in1023.4 mb - 0.00 in0.0 mm 0.00 in0.0 mm